Flight Track Log - Related Links

Times and Time Zones

All times are in EDT time to prevent confusion due to time zone crossing. See the UPS1269 flight status page for this flight to view local times or setup timezone preferences in your user account.

Time Position Orientation Groundspeed Altitude Reporting Facility
EDT Latitude Longitude Course Direction KTS MPH feet Rate Location/Type
Tue 12:03:09 AM 36.1811 -80.1158 287° West 270 311 9,900  Level Atlanta Center
Tue 12:06:00 AM 36.3416 -80.5595 265° West  Level Estimated
Tue 12:07:00 AM 36.3679 -80.6694 287° West  Level FlightAware Approximate
Tue 12:09:07 AM 36.4550 -80.7800 287° West 404 465 24,000  Level FlightAware ADS-B
Tue 12:09:44 AM 36.4850 -80.8590 295° West 416 479 25,000 1,920 Climbing FlightAware ADS-B
Tue 12:10:22 AM 36.5160 -80.9390 296° West 408 470 26,400 2,571 Climbing FlightAware ADS-B
Tue 12:10:54 AM 36.5410 -81.0080 294° West 395 455 28,000 2,000 Climbing FlightAware ADS-B
Tue 12:11:31 AM 36.5690 -81.0830 295° West 402 463 28,700 1,479 Climbing FlightAware ADS-B
Tue 12:12:07 AM 36.5970 -81.1590 295° West 400 460 29,800 1,182 Climbing FlightAware ADS-B
Tue 12:12:37 AM 36.6200 -81.2210 295° West 398 458 30,000 179 Climbing FlightAware ADS-B
Tue 12:13:14 AM 36.6480 -81.2970 295° West 388 447 30,000  Level FlightAware ADS-B
Tue 12:13:50 AM 36.6760 -81.3720 295° West 382 440 30,000  Level FlightAware ADS-B
Tue 12:14:27 AM 36.7030 -81.4460 294° West 384 442 30,000  Level FlightAware ADS-B
Tue 12:15:04 AM 36.7305 -81.5209 295° West 387 445 30,000  Level FlightAware ADS-B
Tue 12:15:34 AM 36.7529 -81.5816 295° West 388 447 30,000  Level FlightAware ADS-B
Tue 12:16:11 AM 36.7802 -81.6569 294° West 387 445 30,000  Level FlightAware ADS-B
Tue 12:16:41 AM 36.8028 -81.7176 295° West 385 443 30,000  Level FlightAware ADS-B
Tue 12:17:21 AM 36.8320 -81.7980 294° West 384 442 30,000  Level FlightAware ADS-B
Tue 12:17:55 AM 36.8570 -81.8670 294° West 384 442 30,000  Level FlightAware ADS-B
Tue 12:18:13 AM 36.8703 -81.9033 295° West 384 442 30,000  Level FlightAware ADS-B
Tue 12:18:58 AM 36.9027 -81.9938 294° West 381 438 30,000  Level FlightAware ADS-B
Tue 12:19:32 AM 36.9273 -82.0617 294° West 378 435 30,000  Level FlightAware ADS-B
Tue 12:20:05 AM 36.9510 -82.1276 294° West 378 435 30,000  Level FlightAware ADS-B
Tue 12:20:35 AM 36.9727 -82.1872 295° West 377 434 30,000  Level FlightAware ADS-B
Tue 12:21:10 AM 36.9974 -82.2564 294° West 375 432 30,000  Level FlightAware ADS-B
Tue 12:21:40 AM 37.0187 -82.3158 294° West 374 430 30,000  Level FlightAware ADS-B
Tue 12:22:11 AM 37.0405 -82.3772 294° West 376 433 30,000  Level FlightAware ADS-B
Tue 12:22:35 AM 37.0577 -82.4252 294° West 374 430 30,000  Level FlightAware ADS-B
Tue 12:22:49 AM 37.0654 -82.4534 289° West 368 423 30,000  Level FlightAware ADS-B
Tue 12:23:19 AM 37.0803 -82.5143 287° West 366 421 30,000  Level FlightAware ADS-B
Tue 12:23:51 AM 37.0959 -82.5790 287° West 367 422 30,000  Level FlightAware ADS-B
Tue 12:24:23 AM 37.1120 -82.6441 287° West 367 422 30,000  Level FlightAware ADS-B
Tue 12:24:55 AM 37.1279 -82.7091 287° West 366 421 30,000  Level FlightAware ADS-B
Tue 12:25:25 AM 37.1428 -82.7692 287° West 361 415 30,000  Level FlightAware ADS-B
Tue 12:25:56 AM 37.1577 -82.8309 287° West 357 411 30,000  Level FlightAware ADS-B
Tue 12:26:28 AM 37.1730 -82.8941 287° West 356 410 30,000  Level FlightAware ADS-B
Tue 12:26:58 AM 37.1875 -82.9535 287° West 359 413 30,000  Level FlightAware ADS-B
Tue 12:27:30 AM 37.2029 -83.0175 287° West 363 418 30,000  Level FlightAware ADS-B
Tue 12:28:00 AM 37.2176 -83.0780 287° West 364 419 30,000  Level FlightAware ADS-B
Tue 12:28:30 AM 37.2324 -83.1387 287° West 365 420 30,000  Level FlightAware ADS-B
Tue 12:29:01 AM 37.2474 -83.1996 287° West 365 420 30,000  Level FlightAware ADS-B
Tue 12:29:34 AM 37.2636 -83.2690 286° West 369 425 30,000  Level FlightAware ADS-B
Tue 12:30:04 AM 37.2784 -83.3311 287° West 373 429 30,000  Level FlightAware ADS-B
Tue 12:30:34 AM 37.2934 -83.3935 287° West 374 430 30,000  Level FlightAware ADS-B
Tue 12:31:04 AM 37.3085 -83.4559 287° West 374 430 30,000  Level FlightAware ADS-B
Tue 12:31:34 AM 37.3234 -83.5180 287° West 373 429 30,000  Level FlightAware ADS-B
Tue 12:32:20 AM 37.3459 -83.6138 286° West 374 430 30,000 -143 Level FlightAware ADS-B
Tue 12:32:58 AM 37.3645 -83.6928 287° West 374 430 29,800 -2,025 Descending FlightAware ADS-B
Tue 12:33:40 AM 37.3848 -83.7788 287° West 369 425 27,300 -3,584 Descending FlightAware ADS-B
Tue 12:34:15 AM 37.4020 -83.8520 286° West 382 440 25,200 -3,319 Descending FlightAware ADS-B
Tue 12:34:27 AM 37.4078 -83.8782 286° West 376 433 24,700 -2,644 Descending FlightAware ADS-B
Tue 12:35:14 AM 37.4317 -83.9812 286° West 396 456 22,600 -2,462 Descending FlightAware ADS-B
Tue 12:35:45 AM 37.4476 -84.0495 286° West 393 452 21,500 -2,066 Descending FlightAware ADS-B
Tue 12:36:15 AM 37.4631 -84.1150 287° West 389 448 20,500 -1,967 Descending FlightAware ADS-B
Tue 12:36:46 AM 37.4781 -84.1814 286° West 377 434 19,500 1,031 Descending FlightAware ADS-B
Tue 12:37:19 AM 37.4870 -84.2250 284° West 394 453 21,600 1,826 Climbing FlightAware ADS-B
Tue 12:37:55 AM 37.5030 -84.2920 287° West 394 453 21,600  Level FlightAware ADS-B
Tue 12:38:31 AM 37.5180 -84.3600 286° West 394 453 21,600  Level FlightAware ADS-B
Tue 12:39:07 AM 37.5340 -84.4270 287° West 394 453 21,600 -5,596 Level FlightAware ADS-B
Tue 12:40:00 AM 37.5669 -84.5708 287° West 358 412 13,300 -1,904 Descending Indianapolis Center
Tue 12:45:38 AM 37.7420 -85.0840 287° West 9,100 -810 Descending FlightAware ADS-B
Tue 12:46:03 AM 37.7630 -85.1150 311° West 265 305 8,400 -808 Descending FlightAware ADS-B
Tue 12:46:30 AM 37.7820 -85.1420 312° West 265 305 8,400  Level FlightAware ADS-B
Tue 12:46:54 AM 37.7980 -85.1660 310° West 265 305 8,400  Level FlightAware ADS-B
Tue 12:47:06 AM 37.8060 -85.1780 310° West 265 305 8,400 -5,368 Level FlightAware ADS-B
Tue 12:47:13 AM 37.8350 -85.1750 North 274 315 6,700 -2,667 Descending FlightAware ADS-B
Tue 12:47:51 AM 37.8760 -85.2030 332° Northwest 272 313 6,400 -646 Descending FlightAware ADS-B
Tue 12:48:18 AM 37.9040 -85.2220 332° Northwest 244 281 6,000 -375 Descending FlightAware ADS-B
Tue 12:48:55 AM 37.9400 -85.2450 333° Northwest 233 268 6,000  Level FlightAware ADS-B
Tue 12:49:31 AM 37.9680 -85.2630 333° Northwest 209 241 6,000  Level FlightAware ADS-B
Tue 12:50:09 AM 38.0010 -85.2820 336° Northwest 198 228 6,000  Level FlightAware ADS-B
Tue 12:50:34 AM 38.0190 -85.2930 334° Northwest 198 228 6,000  Level FlightAware ADS-B
Tue 12:50:54 AM 38.0360 -85.3040 333° Northwest 199 229 6,000  Level FlightAware ADS-B
Tue 12:51:24 AM 38.0650 -85.3200 337° Northwest 199 229 6,000  Level FlightAware ADS-B
Tue 12:51:34 AM 38.0720 -85.3250 331° Northwest 200 230 6,000  Level FlightAware ADS-B
Tue 12:51:54 AM 38.0890 -85.3350 335° Northwest 199 229 6,000  Level FlightAware ADS-B
Tue 12:52:24 AM 38.1150 -85.3510 334° Northwest 199 229 6,000  Level FlightAware ADS-B
Tue 12:52:39 AM 38.1290 -85.3590 336° Northwest 199 229 6,000  Level FlightAware ADS-B
Tue 12:52:59 AM 38.1430 -85.3680 333° Northwest 199 229 6,000  Level FlightAware ADS-B
Tue 12:53:29 AM 38.1600 -85.3910 313° West 172 198 6,000  Level FlightAware ADS-B
Tue 12:53:59 AM 38.1600 -85.4200 270° West 166 191 6,000  Level FlightAware ADS-B
Tue 12:54:24 AM 38.1590 -85.4440 267° West 166 191 6,000  Level FlightAware ADS-B
Tue 12:54:44 AM 38.1590 -85.4600 270° West 166 191 6,000  Level FlightAware ADS-B
Tue 12:55:14 AM 38.1580 -85.4910 268° West 168 193 6,000  Level FlightAware ADS-B
Tue 12:55:29 AM 38.1580 -85.5060 270° West 168 193 6,000  Level FlightAware ADS-B
Tue 12:55:49 AM 38.1580 -85.5270 270° West 169 194 6,000  Level FlightAware ADS-B
Tue 12:56:19 AM 38.1560 -85.5550 265° West 167 192 6,000  Level FlightAware ADS-B
Tue 12:56:29 AM 38.1500 -85.5640 230° Southwest 171 197 6,000  Level FlightAware ADS-B
Tue 12:56:34 AM 38.1460 -85.5660 201° Southwest 176 203 6,000 -500 Level FlightAware ADS-B
Tue 12:56:41 AM 38.1420 -85.5670 191° South 179 206 5,900 -176 Descending FlightAware ADS-B
Tue 12:57:08 AM 38.1230 -85.5700 187° South 179 206 5,900 -545 Level FlightAware ADS-B
Tue 12:57:36 AM 38.0980 -85.5600 163° South 180 207 5,400 -2,129 Descending FlightAware ADS-B
Tue 12:57:39 AM 38.0890 -85.5480 134° Southeast 190 219 4,800 -2,143 Descending FlightAware ADS-B
Tue 12:58:04 AM 38.0720 -85.5420 164° South 188 216 4,400 -933 Descending FlightAware ADS-B
Tue 12:58:24 AM 38.0540 -85.5350 163° South 184 212 4,100 -686 Descending FlightAware ADS-B
Tue 12:58:39 AM 38.0410 -85.5300 163° South 186 214 4,000 -171 Descending FlightAware ADS-B
Tue 12:58:59 AM 38.0250 -85.5250 166° South 188 216 4,000 -150 Level FlightAware ADS-B
Tue 12:59:19 AM 38.0080 -85.5210 169° South 187 215 3,900 -240 Descending FlightAware ADS-B
Tue 12:59:49 AM 37.9850 -85.5200 178° South 185 213 3,800 -982 Descending FlightAware ADS-B
Tue 01:00:14 AM 37.9600 -85.5220 184° South 195 224 3,000 -1,467 Descending FlightAware ADS-B
Tue 01:00:34 AM 37.9390 -85.5230 182° South 194 223 2,700 -857 Descending FlightAware ADS-B
Tue 01:00:49 AM 37.9260 -85.5240 183° South 192 221 2,500 -480 Descending FlightAware ADS-B
Tue 01:00:59 AM 37.9180 -85.5270 196° South 189 217 2,500  Level FlightAware ADS-B
Tue 01:01:04 AM 37.9150 -85.5290 208° Southwest 187 215 2,500  Level FlightAware ADS-B
Tue 01:01:19 AM 37.9070 -85.5390 225° Southwest 181 208 2,500  Level FlightAware ADS-B
Tue 01:01:39 AM 37.8950 -85.5580 231° Southwest 183 211 2,500 -200 Level FlightAware ADS-B
Tue 01:01:49 AM 37.8900 -85.5690 240° Southwest 182 209 2,400  Descending FlightAware ADS-B
Tue 01:01:59 AM 37.8890 -85.5770 261° West 175 201 2,500 240 Climbing FlightAware ADS-B
Tue 01:02:14 AM 37.8930 -85.5920 289° West 174 200 2,500  Level FlightAware ADS-B
Tue 01:02:24 AM 37.8970 -85.5990 306° West 171 197 2,500  Level FlightAware ADS-B
Tue 01:02:29 AM 37.9010 -85.6040 315° West 172 198 2,500  Level FlightAware ADS-B
Tue 01:02:54 AM 37.9140 -85.6190 318° Northwest 168 193 2,500 -150 Level FlightAware ADS-B
Tue 01:03:09 AM 37.9240 -85.6310 317° Northwest 161 185 2,400 -171 Descending FlightAware ADS-B
Tue 01:03:29 AM 37.9360 -85.6420 324° Northwest 163 188 2,400 200 Level FlightAware ADS-B
Tue 01:03:39 AM 37.9420 -85.6450 338° Northwest 163 188 2,500 200 Climbing FlightAware ADS-B
Tue 01:03:59 AM 37.9560 -85.6520 338° Northwest 162 186 2,500  Level FlightAware ADS-B
Tue 01:04:19 AM 37.9700 -85.6580 341° North 162 186 2,500  Level FlightAware ADS-B
Tue 01:04:39 AM 37.9850 -85.6630 345° North 167 192 2,500  Level FlightAware ADS-B
Tue 01:04:59 AM 38.0000 -85.6680 345° North 167 192 2,500  Level FlightAware ADS-B
Tue 01:05:24 AM 38.0200 -85.6740 347° North 166 191 2,500  Level FlightAware ADS-B
Tue 01:05:44 AM 38.0340 -85.6780 347° North 162 186 2,500  Level FlightAware ADS-B
Tue 01:06:04 AM 38.0490 -85.6840 343° North 158 182 2,500  Level FlightAware ADS-B
Tue 01:06:24 AM 38.0630 -85.6890 344° North 160 184 2,500 -436 Level FlightAware ADS-B
Tue 01:06:59 AM 38.0840 -85.6960 345° North 131 151 2,100 -655 Descending FlightAware ADS-B
Tue 01:07:19 AM 38.0960 -85.7000 345° North 120 138 1,900 -686 Descending FlightAware ADS-B
Tue 01:07:34 AM 38.1020 -85.7020 345° North 118 136 1,700 -267 Descending FlightAware ADS-B
Tue 01:08:04 AM 38.1170 -85.7080 343° North 118 136 1,700 -500 Level FlightAware ADS-B
Tue 01:08:46 AM 38.1333 -85.7167 343° North 122 140 1,100 -857 Descending Louisville TRACON

Login

Don't have an account? Register now (free) for customized features, flight alerts, and more!